sensor_id;sensor_type;location;lat;lon;timestamp;pressure;altitude;pressure_sealevel;temperature;humidity
35045;BME280;21231;48.394;34.964;2023-03-14T00:01:22;100819.78;;;-2.71;100.00
35045;BME280;21231;48.394;34.964;2023-03-14T00:03:51;100824.69;;;-2.43;100.00
35045;BME280;21231;48.394;34.964;2023-03-14T00:06:20;100823.22;;;-2.56;100.00
35045;BME280;21231;48.394;34.964;2023-03-14T00:08:48;100821.56;;;-2.84;100.00
35045;BME280;21231;48.394;34.964;2023-03-14T00:11:19;100816.31;;;-2.93;100.00
35045;BME280;21231;48.394;34.964;2023-03-14T00:13:52;100822.97;;;-3.01;100.00
35045;BME280;21231;48.394;34.964;2023-03-14T00:16:22;100816.81;;;-3.10;100.00
35045;BME280;21231;48.394;34.964;2023-03-14T00:18:51;100814.09;;;-3.12;100.00
35045;BME280;21231;48.394;34.964;2023-03-14T00:21:21;100815.91;;;-3.11;100.00
35045;BME280;21231;48.394;34.964;2023-03-14T00:23:49;100816.59;;;-3.26;100.00
35045;BME280;21231;48.394;34.964;2023-03-14T00:26:20;100817.47;;;-3.26;100.00
35045;BME280;21231;48.394;34.964;2023-03-14T00:28:51;100820.53;;;-3.28;100.00
35045;BME280;21231;48.394;34.964;2023-03-14T00:31:20;100814.03;;;-3.34;100.00
35045;BME280;21231;48.394;34.964;2023-03-14T00:33:52;100807.19;;;-3.35;100.00
35045;BME280;21231;48.394;34.964;2023-03-14T00:36:21;100810.44;;;-3.28;100.00
35045;BME280;21231;48.394;34.964;2023-03-14T00:38:50;100803.84;;;-3.06;100.00
35045;BME280;21231;48.394;34.964;2023-03-14T00:41:21;100808.56;;;-2.87;100.00
35045;BME280;21231;48.394;34.964;2023-03-14T00:43:51;100807.19;;;-2.63;100.00
35045;BME280;21231;48.394;34.964;2023-03-14T00:46:20;100802.66;;;-2.37;100.00
35045;BME280;21231;48.394;34.964;2023-03-14T00:48:48;100801.22;;;-2.13;100.00
35045;BME280;21231;48.394;34.964;2023-03-14T00:51:19;100806.41;;;-1.97;100.00
35045;BME280;21231;48.394;34.964;2023-03-14T00:53:53;100808.94;;;-1.97;100.00
35045;BME280;21231;48.394;34.964;2023-03-14T00:56:21;100805.16;;;-2.01;100.00
35045;BME280;21231;48.394;34.964;2023-03-14T00:58:53;100802.47;;;-2.17;100.00
35045;BME280;21231;48.394;34.964;2023-03-14T01:01:23;100807.88;;;-2.43;100.00
35045;BME280;21231;48.394;34.964;2023-03-14T01:03:53;100810.78;;;-2.54;100.00
35045;BME280;21231;48.394;34.964;2023-03-14T01:06:27;100811.88;;;-2.59;100.00
35045;BME280;21231;48.394;34.964;2023-03-14T01:08:56;100817.44;;;-2.69;100.00
35045;BME280;21231;48.394;34.964;2023-03-14T01:11:32;100818.50;;;-2.82;100.00
35045;BME280;21231;48.394;34.964;2023-03-14T01:14:02;100812.38;;;-2.77;100.00
35045;BME280;21231;48.394;34.964;2023-03-14T01:16:34;100819.06;;;-2.70;100.00
35045;BME280;21231;48.394;34.964;2023-03-14T01:19:03;100824.28;;;-2.68;100.00
35045;BME280;21231;48.394;34.964;2023-03-14T01:21:34;100829.88;;;-2.71;100.00
35045;BME280;21231;48.394;34.964;2023-03-14T01:24:05;100829.34;;;-2.68;100.00
35045;BME280;21231;48.394;34.964;2023-03-14T01:26:35;100832.75;;;-2.60;100.00
35045;BME280;21231;48.394;34.964;2023-03-14T01:29:05;100819.25;;;-2.46;100.00
35045;BME280;21231;48.394;34.964;2023-03-14T01:31:35;100820.34;;;-2.30;100.00
35045;BME280;21231;48.394;34.964;2023-03-14T01:34:04;100825.00;;;-2.18;100.00
35045;BME280;21231;48.394;34.964;2023-03-14T01:36:33;100821.94;;;-2.01;100.00
35045;BME280;21231;48.394;34.964;2023-03-14T01:39:03;100818.88;;;-2.06;100.00
35045;BME280;21231;48.394;34.964;2023-03-14T01:41:31;100812.22;;;-2.42;100.00
35045;BME280;21231;48.394;34.964;2023-03-14T01:44:01;100816.91;;;-2.52;100.00
35045;BME280;21231;48.394;34.964;2023-03-14T01:46:43;100819.63;;;-2.51;100.00
35045;BME280;21231;48.394;34.964;2023-03-14T01:49:32;100820.53;;;-2.50;100.00
35045;BME280;21231;48.394;34.964;2023-03-14T01:55:07;100824.50;;;-2.59;100.00
35045;BME280;21231;48.394;34.964;2023-03-14T01:57:44;100825.38;;;-2.37;100.00
35045;BME280;21231;48.394;34.964;2023-03-14T02:00:20;100822.88;;;-2.22;100.00
35045;BME280;21231;48.394;34.964;2023-03-14T02:02:53;100825.75;;;-2.12;100.00
35045;BME280;21231;48.394;34.964;2023-03-14T02:05:31;100831.16;;;-2.09;100.00
35045;BME280;21231;48.394;34.964;2023-03-14T02:08:08;100821.38;;;-2.06;100.00
35045;BME280;21231;48.394;34.964;2023-03-14T02:10:48;100820.84;;;-2.03;100.00
35045;BME280;21231;48.394;34.964;2023-03-14T02:13:22;100824.28;;;-2.10;100.00
35045;BME280;21231;48.394;34.964;2023-03-14T02:15:56;100815.63;;;-2.12;100.00
35045;BME280;21231;48.394;34.964;2023-03-14T02:18:47;100830.97;;;-2.10;100.00
35045;BME280;21231;48.394;34.964;2023-03-14T02:24:22;100815.63;;;-2.19;100.00
35045;BME280;21231;48.394;34.964;2023-03-14T02:27:15;100826.47;;;-2.20;100.00
35045;BME280;21231;48.394;34.964;2023-03-14T02:29:58;100833.84;;;-2.22;100.00
35045;BME280;21231;48.394;34.964;2023-03-14T02:32:31;100823.56;;;-2.23;100.00
35045;BME280;21231;48.394;34.964;2023-03-14T02:35:04;100826.09;;;-2.23;100.00
35045;BME280;21231;48.394;34.964;2023-03-14T02:37:44;100830.63;;;-2.28;100.00
35045;BME280;21231;48.394;34.964;2023-03-14T02:40:14;100828.09;;;-2.28;100.00
35045;BME280;21231;48.394;34.964;2023-03-14T02:42:43;100829.88;;;-2.34;100.00
35045;BME280;21231;48.394;34.964;2023-03-14T02:47:45;100836.91;;;-2.32;100.00
35045;BME280;21231;48.394;34.964;2023-03-14T02:50:19;100834.06;;;-2.35;100.00
35045;BME280;21231;48.394;34.964;2023-03-14T02:52:48;100840.91;;;-2.34;100.00
35045;BME280;21231;48.394;34.964;2023-03-14T02:55:22;100845.94;;;-2.41;100.00
35045;BME280;21231;48.394;34.964;2023-03-14T02:57:53;100837.28;;;-2.43;100.00
35045;BME280;21231;48.394;34.964;2023-03-14T03:00:21;100835.31;;;-2.46;100.00
35045;BME280;21231;48.394;34.964;2023-03-14T03:02:49;100854.41;;;-2.48;100.00
35045;BME280;21231;48.394;34.964;2023-03-14T03:05:17;100849.34;;;-2.48;100.00
35045;BME280;21231;48.394;34.964;2023-03-14T03:07:45;100851.34;;;-2.53;100.00
35045;BME280;21231;48.394;34.964;2023-03-14T03:10:14;100862.34;;;-2.52;100.00
35045;BME280;21231;48.394;34.964;2023-03-14T03:12:42;100860.91;;;-2.57;100.00
35045;BME280;21231;48.394;34.964;2023-03-14T03:15:12;100865.56;;;-2.60;100.00
35045;BME280;21231;48.394;34.964;2023-03-14T03:17:40;100865.56;;;-2.68;100.00
35045;BME280;21231;48.394;34.964;2023-03-14T03:20:10;100867.00;;;-2.70;100.00
35045;BME280;21231;48.394;34.964;2023-03-14T03:22:39;100868.44;;;-2.72;100.00
35045;BME280;21231;48.394;34.964;2023-03-14T03:25:09;100863.41;;;-2.72;100.00
35045;BME280;21231;48.394;34.964;2023-03-14T03:27:38;100870.25;;;-2.71;100.00
35045;BME280;21231;48.394;34.964;2023-03-14T03:30:07;100866.09;;;-2.70;100.00
35045;BME280;21231;48.394;34.964;2023-03-14T03:32:36;100861.25;;;-2.61;100.00
35045;BME280;21231;48.394;34.964;2023-03-14T03:35:05;100873.88;;;-2.61;100.00
35045;BME280;21231;48.394;34.964;2023-03-14T03:37:38;100869.34;;;-2.71;100.00
35045;BME280;21231;48.394;34.964;2023-03-14T03:40:07;100869.34;;;-2.79;100.00
35045;BME280;21231;48.394;34.964;2023-03-14T03:42:37;100876.91;;;-2.79;100.00
35045;BME280;21231;48.394;34.964;2023-03-14T03:45:09;100866.97;;;-2.84;100.00
35045;BME280;21231;48.394;34.964;2023-03-14T03:47:45;100862.28;;;-2.81;100.00
35045;BME280;21231;48.394;34.964;2023-03-14T03:50:13;100863.91;;;-2.82;100.00
35045;BME280;21231;48.394;34.964;2023-03-14T03:52:41;100861.00;;;-2.85;100.00
35045;BME280;21231;48.394;34.964;2023-03-14T03:55:10;100862.81;;;-2.84;100.00
35045;BME280;21231;48.394;34.964;2023-03-14T03:57:38;100860.81;;;-2.86;100.00
35045;BME280;21231;48.394;34.964;2023-03-14T04:00:07;100861.75;;;-2.86;100.00
35045;BME280;21231;48.394;34.964;2023-03-14T04:02:42;100860.63;;;-2.88;100.00
35045;BME280;21231;48.394;34.964;2023-03-14T04:05:14;100858.31;;;-2.86;100.00
35045;BME280;21231;48.394;34.964;2023-03-14T04:07:50;100862.47;;;-2.87;100.00
35045;BME280;21231;48.394;34.964;2023-03-14T04:10:23;100858.84;;;-2.89;100.00
35045;BME280;21231;48.394;34.964;2023-03-14T04:13:04;100861.56;;;-2.87;100.00
35045;BME280;21231;48.394;34.964;2023-03-14T04:15:34;100853.94;;;-2.95;100.00
35045;BME280;21231;48.394;34.964;2023-03-14T04:18:09;100861.53;;;-2.95;100.00
35045;BME280;21231;48.394;34.964;2023-03-14T04:20:38;100859.72;;;-2.96;100.00
35045;BME280;21231;48.394;34.964;2023-03-14T04:23:06;100862.78;;;-2.98;100.00
35045;BME280;21231;48.394;34.964;2023-03-14T04:25:34;100850.38;;;-2.89;100.00
35045;BME280;21231;48.394;34.964;2023-03-14T04:28:04;100848.78;;;-2.82;100.00
35045;BME280;21231;48.394;34.964;2023-03-14T04:30:33;100843.03;;;-2.73;100.00
35045;BME280;21231;48.394;34.964;2023-03-14T04:33:12;100848.81;;;-2.60;100.00
35045;BME280;21231;48.394;34.964;2023-03-14T04:35:47;100851.69;;;-2.49;100.00
35045;BME280;21231;48.394;34.964;2023-03-14T04:38:16;100848.47;;;-2.41;100.00
35045;BME280;21231;48.394;34.964;2023-03-14T04:40:46;100841.25;;;-2.38;100.00
35045;BME280;21231;48.394;34.964;2023-03-14T04:43:16;100853.72;;;-2.32;100.00
35045;BME280;21231;48.394;34.964;2023-03-14T04:45:50;100851.88;;;-2.26;100.00
35045;BME280;21231;48.394;34.964;2023-03-14T04:48:18;100843.59;;;-2.18;100.00
35045;BME280;21231;48.394;34.964;2023-03-14T04:50:47;100839.81;;;-2.00;100.00
35045;BME280;21231;48.394;34.964;2023-03-14T04:53:17;100835.13;;;-1.37;100.00
35045;BME280;21231;48.394;34.964;2023-03-14T04:55:52;100839.84;;;-0.01;100.00
35045;BME280;21231;48.394;34.964;2023-03-14T04:58:23;100838.22;;;0.96;100.00
35045;BME280;21231;48.394;34.964;2023-03-14T05:00:54;100826.09;;;1.69;100.00
35045;BME280;21231;48.394;34.964;2023-03-14T05:03:41;100838.66;;;2.18;100.00
35045;BME280;21231;48.394;34.964;2023-03-14T05:06:09;100846.66;;;2.57;100.00
35045;BME280;21231;48.394;34.964;2023-03-14T05:08:58;100849.09;;;3.08;100.00
35045;BME280;21231;48.394;34.964;2023-03-14T05:11:56;100856.38;;;3.14;100.00
35045;BME280;21231;48.394;34.964;2023-03-14T05:14:24;100852.59;;;3.46;100.00
35045;BME280;21231;48.394;34.964;2023-03-14T05:17:16;100851.06;;;3.66;100.00
35045;BME280;21231;48.394;34.964;2023-03-14T05:20:03;100857.19;;;4.05;100.00
35045;BME280;21231;48.394;34.964;2023-03-14T05:23:09;100854.09;;;4.46;100.00
35045;BME280;21231;48.394;34.964;2023-03-14T05:25:48;100855.88;;;4.27;100.00
35045;BME280;21231;48.394;34.964;2023-03-14T05:28:39;100855.31;;;4.49;100.00
35045;BME280;21231;48.394;34.964;2023-03-14T05:31:40;100861.16;;;4.20;100.00
35045;BME280;21231;48.394;34.964;2023-03-14T05:34:27;100859.72;;;4.99;100.00
35045;BME280;21231;48.394;34.964;2023-03-14T05:37:13;100866.34;;;4.78;100.00
35045;BME280;21231;48.394;34.964;2023-03-14T05:40:01;100865.66;;;4.89;100.00
35045;BME280;21231;48.394;34.964;2023-03-14T05:43:00;100866.03;;;5.32;100.00
35045;BME280;21231;48.394;34.964;2023-03-14T05:45:49;100870.00;;;5.10;100.00
35045;BME280;21231;48.394;34.964;2023-03-14T05:48:33;100864.28;;;5.42;100.00
35045;BME280;21231;48.394;34.964;2023-03-14T05:51:37;100870.44;;;5.44;100.00
35045;BME280;21231;48.394;34.964;2023-03-14T05:54:20;100875.78;;;5.37;100.00
35045;BME280;21231;48.394;34.964;2023-03-14T05:57:15;100880.91;;;5.47;100.00
35045;BME280;21231;48.394;34.964;2023-03-14T06:00:04;100873.88;;;5.44;100.00
35045;BME280;21231;48.394;34.964;2023-03-14T06:02:39;100873.38;;;5.78;100.00
35045;BME280;21231;48.394;34.964;2023-03-14T06:05:18;100874.97;;;6.07;100.00
35045;BME280;21231;48.394;34.964;2023-03-14T06:07:47;100875.38;;;6.22;100.00
35045;BME280;21231;48.394;34.964;2023-03-14T06:10:16;100863.38;;;6.42;100.00
35045;BME280;21231;48.394;34.964;2023-03-14T06:12:44;100871.16;;;6.54;100.00
35045;BME280;21231;48.394;34.964;2023-03-14T06:15:13;100866.16;;;6.77;100.00
35045;BME280;21231;48.394;34.964;2023-03-14T06:17:43;100873.75;;;6.44;100.00
35045;BME280;21231;48.394;34.964;2023-03-14T06:20:13;100876.25;;;6.13;100.00
35045;BME280;21231;48.394;34.964;2023-03-14T06:22:42;100876.25;;;6.02;100.00
35045;BME280;21231;48.394;34.964;2023-03-14T06:25:12;100867.97;;;6.36;100.00
35045;BME280;21231;48.394;34.964;2023-03-14T06:27:46;100870.25;;;6.22;100.00
35045;BME280;21231;48.394;34.964;2023-03-14T06:30:16;100863.75;;;6.26;100.00
35045;BME280;21231;48.394;34.964;2023-03-14T06:32:50;100873.72;;;6.54;100.00
35045;BME280;21231;48.394;34.964;2023-03-14T06:35:20;100873.53;;;7.15;100.00
35045;BME280;21231;48.394;34.964;2023-03-14T06:37:48;100876.13;;;6.94;100.00
35045;BME280;21231;48.394;34.964;2023-03-14T06:40:18;100861.78;;;7.39;100.00
35045;BME280;21231;48.394;34.964;2023-03-14T06:42:54;100870.53;;;7.21;100.00
35045;BME280;21231;48.394;34.964;2023-03-14T06:45:25;100885.50;;;6.62;100.00
35045;BME280;21231;48.394;34.964;2023-03-14T06:47:55;100875.50;;;6.97;100.00
35045;BME280;21231;48.394;34.964;2023-03-14T06:50:31;100870.13;;;7.37;100.00
35045;BME280;21231;48.394;34.964;2023-03-14T06:53:00;100872.81;;;7.38;100.00
35045;BME280;21231;48.394;34.964;2023-03-14T06:55:28;100873.94;;;7.09;100.00
35045;BME280;21231;48.394;34.964;2023-03-14T06:57:59;100853.25;;;7.51;100.00
35045;BME280;21231;48.394;34.964;2023-03-14T07:00:28;100853.59;;;7.33;100.00
35045;BME280;21231;48.394;34.964;2023-03-14T07:02:57;100858.50;;;7.20;100.00
35045;BME280;21231;48.394;34.964;2023-03-14T07:05:32;100865.34;;;7.85;100.00
35045;BME280;21231;48.394;34.964;2023-03-14T07:08:01;100869.28;;;7.59;100.00
35045;BME280;21231;48.394;34.964;2023-03-14T07:10:29;100860.94;;;7.84;100.00
35045;BME280;21231;48.394;34.964;2023-03-14T07:12:57;100861.84;;;7.84;100.00
35045;BME280;21231;48.394;34.964;2023-03-14T07:15:29;100861.78;;;8.17;100.00
35045;BME280;21231;48.394;34.964;2023-03-14T07:18:02;100848.22;;;8.30;100.00
35045;BME280;21231;48.394;34.964;2023-03-14T07:20:32;100860.41;;;8.44;100.00
35045;BME280;21231;48.394;34.964;2023-03-14T07:23:01;100860.03;;;8.28;100.00
35045;BME280;21231;48.394;34.964;2023-03-14T07:25:37;100854.63;;;8.13;100.00
35045;BME280;21231;48.394;34.964;2023-03-14T07:28:05;100852.25;;;8.38;100.00
35045;BME280;21231;48.394;34.964;2023-03-14T07:30:34;100847.66;;;9.04;100.00
35045;BME280;21231;48.394;34.964;2023-03-14T07:33:10;100847.28;;;8.52;100.00
35045;BME280;21231;48.394;34.964;2023-03-14T07:35:38;100841.72;;;8.69;100.00
35045;BME280;21231;48.394;34.964;2023-03-14T07:38:07;100841.41;;;9.01;100.00
35045;BME280;21231;48.394;34.964;2023-03-14T07:40:39;100840.81;;;9.17;100.00
35045;BME280;21231;48.394;34.964;2023-03-14T07:43:09;100839.69;;;9.25;100.00
35045;BME280;21231;48.394;34.964;2023-03-14T07:45:46;100838.34;;;9.42;100.00
35045;BME280;21231;48.394;34.964;2023-03-14T07:48:17;100833.78;;;9.75;100.00
35045;BME280;21231;48.394;34.964;2023-03-14T07:50:49;100837.09;;;9.37;100.00
35045;BME280;21231;48.394;34.964;2023-03-14T07:53:18;100837.38;;;9.16;100.00
35045;BME280;21231;48.394;34.964;2023-03-14T07:55:51;100837.56;;;9.19;100.00
35045;BME280;21231;48.394;34.964;2023-03-14T07:58:20;100837.97;;;9.49;100.00
35045;BME280;21231;48.394;34.964;2023-03-14T08:00:52;100836.03;;;8.86;100.00
35045;BME280;21231;48.394;34.964;2023-03-14T08:03:21;100833.34;;;8.84;100.00
35045;BME280;21231;48.394;34.964;2023-03-14T08:05:53;100830.63;;;9.30;100.00
35045;BME280;21231;48.394;34.964;2023-03-14T08:08:21;100824.75;;;8.95;100.00
35045;BME280;21231;48.394;34.964;2023-03-14T08:10:49;100827.31;;;8.83;100.00
35045;BME280;21231;48.394;34.964;2023-03-14T08:13:18;100815.91;;;8.92;100.00
35045;BME280;21231;48.394;34.964;2023-03-14T08:15:48;100807.50;;;9.18;100.00
35045;BME280;21231;48.394;34.964;2023-03-14T08:18:17;100816.78;;;9.28;100.00
35045;BME280;21231;48.394;34.964;2023-03-14T08:20:45;100808.41;;;9.19;100.00
35045;BME280;21231;48.394;34.964;2023-03-14T08:23:13;100806.09;;;9.59;100.00
35045;BME280;21231;48.394;34.964;2023-03-14T08:25:42;100805.06;;;8.96;100.00
35045;BME280;21231;48.394;34.964;2023-03-14T08:28:11;100804.06;;;8.94;100.00
35045;BME280;21231;48.394;34.964;2023-03-14T08:30:39;100799.47;;;9.02;100.00
35045;BME280;21231;48.394;34.964;2023-03-14T08:33:10;100800.91;;;9.22;100.00
35045;BME280;21231;48.394;34.964;2023-03-14T08:35:40;100793.75;;;9.30;100.00
35045;BME280;21231;48.394;34.964;2023-03-14T08:38:08;100789.09;;;9.12;100.00
35045;BME280;21231;48.394;34.964;2023-03-14T08:40:37;100793.06;;;9.32;100.00
35045;BME280;21231;48.394;34.964;2023-03-14T08:43:05;100777.44;;;9.67;100.00
35045;BME280;21231;48.394;34.964;2023-03-14T08:45:36;100786.22;;;9.33;100.00
35045;BME280;21231;48.394;34.964;2023-03-14T08:48:05;100777.84;;;9.23;100.00
35045;BME280;21231;48.394;34.964;2023-03-14T08:50:33;100784.00;;;9.38;100.00
35045;BME280;21231;48.394;34.964;2023-03-14T08:53:01;100779.16;;;9.54;100.00
35045;BME280;21231;48.394;34.964;2023-03-14T08:55:30;100784.22;;;9.29;100.00
35045;BME280;21231;48.394;34.964;2023-03-14T08:58:01;100786.53;;;9.49;100.00
35045;BME280;21231;48.394;34.964;2023-03-14T09:00:30;100783.31;;;9.40;100.00
35045;BME280;21231;48.394;34.964;2023-03-14T09:03:01;100776.25;;;10.00;100.00
35045;BME280;21231;48.394;34.964;2023-03-14T09:05:32;100775.84;;;9.69;100.00
35045;BME280;21231;48.394;34.964;2023-03-14T09:08:01;100782.41;;;9.77;100.00
35045;BME280;21231;48.394;34.964;2023-03-14T09:10:30;100772.16;;;10.16;100.00
35045;BME280;21231;48.394;34.964;2023-03-14T09:12:58;100759.34;;;9.79;100.00
35045;BME280;21231;48.394;34.964;2023-03-14T09:15:28;100760.78;;;9.49;100.00
35045;BME280;21231;48.394;34.964;2023-03-14T09:17:56;100761.47;;;9.47;100.00
35045;BME280;21231;48.394;34.964;2023-03-14T09:20:24;100758.88;;;9.21;100.00
35045;BME280;21231;48.394;34.964;2023-03-14T09:22:53;100749.91;;;9.28;100.00
35045;BME280;21231;48.394;34.964;2023-03-14T09:25:21;100746.81;;;9.20;100.00
35045;BME280;21231;48.394;34.964;2023-03-14T09:27:50;100739.56;;;8.55;100.00
35045;BME280;21231;48.394;34.964;2023-03-14T09:30:18;100734.19;;;8.16;100.00
35045;BME280;21231;48.394;34.964;2023-03-14T09:32:46;100733.72;;;8.10;100.00
35045;BME280;21231;48.394;34.964;2023-03-14T09:35:14;100734.19;;;8.16;100.00
35045;BME280;21231;48.394;34.964;2023-03-14T09:37:42;100734.38;;;8.07;100.00
35045;BME280;21231;48.394;34.964;2023-03-14T09:40:16;100726.84;;;8.44;100.00
35045;BME280;21231;48.394;34.964;2023-03-14T09:42:55;100717.47;;;8.45;100.00
35045;BME280;21231;48.394;34.964;2023-03-14T09:45:27;100723.38;;;8.32;100.00
35045;BME280;21231;48.394;34.964;2023-03-14T09:47:57;100713.22;;;8.22;100.00
35045;BME280;21231;48.394;34.964;2023-03-14T09:50:35;100705.16;;;8.17;100.00
35045;BME280;21231;48.394;34.964;2023-03-14T09:53:16;100702.16;;;8.11;100.00
35045;BME280;21231;48.394;34.964;2023-03-14T09:55:49;100703.03;;;8.11;100.00
35045;BME280;21231;48.394;34.964;2023-03-14T09:58:23;100696.66;;;8.06;100.00
35045;BME280;21231;48.394;34.964;2023-03-14T10:00:54;100691.59;;;7.84;100.00
35045;BME280;21231;48.394;34.964;2023-03-14T10:03:34;100686.50;;;8.08;100.00
35045;BME280;21231;48.394;34.964;2023-03-14T10:06:11;100680.75;;;8.34;100.00
35045;BME280;21231;48.394;34.964;2023-03-14T10:08:43;100684.09;;;8.45;100.00
35045;BME280;21231;48.394;34.964;2023-03-14T10:11:15;100676.25;;;8.55;100.00
35045;BME280;21231;48.394;34.964;2023-03-14T10:14:10;100667.88;;;8.58;100.00
35045;BME280;21231;48.394;34.964;2023-03-14T10:16:44;100651.09;;;8.63;100.00
35045;BME280;21231;48.394;34.964;2023-03-14T10:19:17;100649.78;;;8.56;100.00
35045;BME280;21231;48.394;34.964;2023-03-14T10:21:53;100635.84;;;8.41;100.00
35045;BME280;21231;48.394;34.964;2023-03-14T10:24:26;100633.59;;;8.46;100.00
35045;BME280;21231;48.394;34.964;2023-03-14T10:27:10;100629.56;;;8.61;100.00
35045;BME280;21231;48.394;34.964;2023-03-14T10:29:57;100625.78;;;8.32;100.00
35045;BME280;21231;48.394;34.964;2023-03-14T10:32:34;100624.56;;;8.27;100.00
35045;BME280;21231;48.394;34.964;2023-03-14T10:37:55;100620.19;;;8.50;100.00
35045;BME280;21231;48.394;34.964;2023-03-14T10:40:28;100612.47;;;8.50;100.00
35045;BME280;21231;48.394;34.964;2023-03-14T10:42:59;100603.09;;;8.50;100.00
35045;BME280;21231;48.394;34.964;2023-03-14T10:45:36;100606.56;;;8.51;100.00
35045;BME280;21231;48.394;34.964;2023-03-14T10:48:33;100608.44;;;8.65;100.00
35045;BME280;21231;48.394;34.964;2023-03-14T10:53:41;100601.31;;;8.61;100.00
35045;BME280;21231;48.394;34.964;2023-03-14T10:56:21;100599.44;;;8.84;100.00
35045;BME280;21231;48.394;34.964;2023-03-14T10:58:52;100594.88;;;8.80;100.00
35045;BME280;21231;48.394;34.964;2023-03-14T11:01:29;100597.66;;;8.83;100.00
35045;BME280;21231;48.394;34.964;2023-03-14T11:04:04;100578.09;;;8.85;100.00
35045;BME280;21231;48.394;34.964;2023-03-14T11:06:50;100584.19;;;8.74;100.00
35045;BME280;21231;48.394;34.964;2023-03-14T11:09:33;100580.41;;;8.68;100.00
35045;BME280;21231;48.394;34.964;2023-03-14T11:20:59;100561.97;;;9.00;100.00
35045;BME280;21231;48.394;34.964;2023-03-14T11:26:54;100541.69;;;9.30;100.00
35045;BME280;21231;48.394;34.964;2023-03-14T11:29:35;100530.03;;;9.35;100.00
35045;BME280;21231;48.394;34.964;2023-03-14T11:32:44;100536.25;;;9.39;100.00
35045;BME280;21231;48.394;34.964;2023-03-14T11:38:00;100524.25;;;9.26;100.00
35045;BME280;21231;48.394;34.964;2023-03-14T11:40:33;100517.19;;;9.48;100.00
35045;BME280;21231;48.394;34.964;2023-03-14T11:43:13;100521.72;;;9.39;100.00
35045;BME280;21231;48.394;34.964;2023-03-14T11:45:51;100517.66;;;9.43;100.00
35045;BME280;21231;48.394;34.964;2023-03-14T11:48:40;100505.28;;;9.37;100.00
35045;BME280;21231;48.394;34.964;2023-03-14T11:51:26;100509.09;;;9.17;100.00
35045;BME280;21231;48.394;34.964;2023-03-14T11:54:04;100501.13;;;9.26;100.00
35045;BME280;21231;48.394;34.964;2023-03-14T11:56:50;100503.69;;;9.26;100.00
35045;BME280;21231;48.394;34.964;2023-03-14T11:59:27;100494.97;;;9.23;100.00
35045;BME280;21231;48.394;34.964;2023-03-14T12:04:53;100491.09;;;9.17;100.00
35045;BME280;21231;48.394;34.964;2023-03-14T12:07:40;100492.00;;;9.17;100.00
35045;BME280;21231;48.394;34.964;2023-03-14T12:10:12;100485.25;;;9.19;100.00
35045;BME280;21231;48.394;34.964;2023-03-14T12:12:40;100477.38;;;9.30;100.00
35045;BME280;21231;48.394;34.964;2023-03-14T12:15:18;100476.22;;;9.38;100.00
35045;BME280;21231;48.394;34.964;2023-03-14T12:17:54;100479.16;;;9.44;100.00
35045;BME280;21231;48.394;34.964;2023-03-14T12:20:24;100474.22;;;9.34;100.00
35045;BME280;21231;48.394;34.964;2023-03-14T12:23:03;100469.38;;;9.39;100.00
35045;BME280;21231;48.394;34.964;2023-03-14T12:25:33;100469.38;;;9.39;100.00
35045;BME280;21231;48.394;34.964;2023-03-14T12:28:11;100467.09;;;9.30;100.00
35045;BME280;21231;48.394;34.964;2023-03-14T12:30:44;100466.09;;;9.28;100.00
35045;BME280;21231;48.394;34.964;2023-03-14T12:33:20;100461.63;;;9.25;100.00
35045;BME280;21231;48.394;34.964;2023-03-14T12:35:52;100460.09;;;9.54;100.00
35045;BME280;21231;48.394;34.964;2023-03-14T12:47:26;100451.88;;;9.73;100.00
35045;BME280;21231;48.394;34.964;2023-03-14T12:49:56;100441.00;;;9.51;100.00
35045;BME280;21231;48.394;34.964;2023-03-14T12:55:53;100434.75;;;9.60;100.00
35045;BME280;21231;48.394;34.964;2023-03-14T12:58:35;100425.34;;;9.61;100.00
35045;BME280;21231;48.394;34.964;2023-03-14T13:01:15;100425.44;;;9.63;100.00
35045;BME280;21231;48.394;34.964;2023-03-14T13:03:51;100414.56;;;9.53;100.00
35045;BME280;21231;48.394;34.964;2023-03-14T13:12:07;100407.34;;;9.47;100.00
35045;BME280;21231;48.394;34.964;2023-03-14T13:14:45;100401.00;;;9.56;100.00
35045;BME280;21231;48.394;34.964;2023-03-14T13:17:22;100397.44;;;9.54;100.00
35045;BME280;21231;48.394;34.964;2023-03-14T13:20:11;100403.28;;;9.51;100.00
35045;BME280;21231;48.394;34.964;2023-03-14T13:22:46;100388.41;;;9.60;100.00
35045;BME280;21231;48.394;34.964;2023-03-14T13:25:15;100382.56;;;9.63;100.00
35045;BME280;21231;48.394;34.964;2023-03-14T13:27:44;100381.88;;;9.66;100.00
35045;BME280;21231;48.394;34.964;2023-03-14T13:30:18;100380.00;;;9.77;100.00
35045;BME280;21231;48.394;34.964;2023-03-14T13:32:48;100372.34;;;9.78;100.00
35045;BME280;21231;48.394;34.964;2023-03-14T13:35:26;100369.50;;;9.73;100.00
35045;BME280;21231;48.394;34.964;2023-03-14T13:37:58;100365.06;;;9.71;100.00
35045;BME280;21231;48.394;34.964;2023-03-14T13:40:43;100363.75;;;9.78;100.00
35045;BME280;21231;48.394;34.964;2023-03-14T13:43:18;100347.31;;;9.75;100.00
35045;BME280;21231;48.394;34.964;2023-03-14T13:45:52;100356.91;;;9.78;100.00
35045;BME280;21231;48.394;34.964;2023-03-14T13:48:27;100350.09;;;9.79;100.00
35045;BME280;21231;48.394;34.964;2023-03-14T13:51:05;100334.69;;;9.65;100.00
35045;BME280;21231;48.394;34.964;2023-03-14T13:54:03;100331.50;;;9.69;100.00
35045;BME280;21231;48.394;34.964;2023-03-14T13:56:32;100332.47;;;9.71;100.00
35045;BME280;21231;48.394;34.964;2023-03-14T13:59:01;100315.88;;;9.66;100.00